createdAt,value
2019-04-16T00:01:21.330Z,15.10
2019-04-16T00:03:54.178Z,15.10
2019-04-16T00:06:40.711Z,15.00
2019-04-16T00:09:27.553Z,15.10
2019-04-16T00:12:14.062Z,15.10
2019-04-16T00:14:45.599Z,15.00
2019-04-16T00:17:15.944Z,15.10
2019-04-16T00:19:46.467Z,15.10
2019-04-16T00:22:24.010Z,15.10
2019-04-16T00:24:53.817Z,15.20
2019-04-16T00:27:28.142Z,15.20
2019-04-16T00:29:56.039Z,15.10
2019-04-16T00:32:27.500Z,15.10
2019-04-16T00:34:57.381Z,15.10
2019-04-16T00:37:27.205Z,15.10
2019-04-16T00:39:57.319Z,15.10
2019-04-16T00:42:27.282Z,15.10
2019-04-16T00:44:57.095Z,15.10
2019-04-16T00:47:27.982Z,15.10
2019-04-16T00:49:59.325Z,15.20
2019-04-16T00:52:29.481Z,15.20
2019-04-16T00:54:59.293Z,15.20
2019-04-16T00:57:29.394Z,15.20
2019-04-16T00:59:59.223Z,15.30
2019-04-16T01:02:29.028Z,15.30
2019-04-16T01:04:58.851Z,15.30
2019-04-16T01:07:28.662Z,15.30
2019-04-16T01:09:58.618Z,15.30
2019-04-16T01:12:28.554Z,15.20
2019-04-16T01:15:00.654Z,15.20
2019-04-16T01:17:30.249Z,15.10
2019-04-16T01:20:00.366Z,15.10
2019-04-16T01:22:30.251Z,15.10
2019-04-16T01:25:00.066Z,15.00
2019-04-16T01:27:31.513Z,15.00
2019-04-16T01:30:04.897Z,15.00
2019-04-16T01:32:35.442Z,15.00
2019-04-16T01:35:24.237Z,14.90
2019-04-16T01:38:11.939Z,14.80
2019-04-16T01:40:43.462Z,14.80
2019-04-16T01:43:13.282Z,14.80
2019-04-16T01:45:43.171Z,14.70
2019-04-16T01:48:13.406Z,14.70
2019-04-16T01:50:43.775Z,14.70
2019-04-16T01:53:14.241Z,14.70
2019-04-16T01:55:44.058Z,14.70
2019-04-16T01:58:13.879Z,14.60
2019-04-16T02:00:43.839Z,14.60
2019-04-16T02:03:17.802Z,14.60
2019-04-16T02:05:46.868Z,14.70
2019-04-16T02:08:16.691Z,14.60
2019-04-16T02:10:46.547Z,14.70
2019-04-16T02:13:16.357Z,14.70
2019-04-16T02:15:46.256Z,14.70
2019-04-16T02:18:16.078Z,14.60
2019-04-16T02:20:48.902Z,14.60
2019-04-16T02:23:18.017Z,14.50
2019-04-16T02:25:51.382Z,14.50
2019-04-16T02:28:21.744Z,14.50
2019-04-16T02:30:52.263Z,14.50
2019-04-16T02:33:22.083Z,14.50
2019-04-16T02:35:51.972Z,14.40
2019-04-16T02:38:21.777Z,14.40
2019-04-16T02:40:53.105Z,14.30
2019-04-16T02:43:23.033Z,14.20
2019-04-16T02:45:56.689Z,14.20
2019-04-16T02:48:24.731Z,14.10
2019-04-16T02:51:07.368Z,14.20
2019-04-16T02:53:41.532Z,14.10
2019-04-16T02:56:31.372Z,14.10
2019-04-16T02:59:13.573Z,14.10
2019-04-16T03:01:45.196Z,13.90
2019-04-16T03:04:27.082Z,13.90
2019-04-16T03:06:57.225Z,13.90
2019-04-16T03:09:27.041Z,14.00
2019-04-16T03:11:56.862Z,14.00
2019-04-16T03:14:29.789Z,14.00
2019-04-16T03:17:11.994Z,14.00
2019-04-16T03:19:43.501Z,13.90
2019-04-16T03:22:13.317Z,13.90
2019-04-16T03:24:43.521Z,14.00
2019-04-16T03:27:13.339Z,14.00
2019-04-16T03:29:43.159Z,13.90
2019-04-16T03:32:15.004Z,13.90
2019-04-16T03:34:44.718Z,13.90
2019-04-16T03:37:14.536Z,13.80
2019-04-16T03:39:45.023Z,13.80
2019-04-16T03:42:15.942Z,13.80
2019-04-16T03:44:45.758Z,13.70
2019-04-16T03:47:18.816Z,13.70
2019-04-16T03:49:47.630Z,13.60
2019-04-16T03:52:17.805Z,13.70
2019-04-16T03:54:47.617Z,13.60
2019-04-16T03:57:17.426Z,13.60
2019-04-16T03:59:47.306Z,13.60
2019-04-16T04:02:21.983Z,13.50
2019-04-16T04:04:48.565Z,13.50
2019-04-16T04:07:18.391Z,13.60
2019-04-16T04:09:48.202Z,13.60
2019-04-16T04:12:18.293Z,13.60
2019-04-16T04:14:48.237Z,13.60
2019-04-16T04:17:18.059Z,13.50
2019-04-16T04:19:47.947Z,13.50
2019-04-16T04:22:17.760Z,13.50
2019-04-16T04:24:47.637Z,13.50
2019-04-16T04:27:19.311Z,13.50
2019-04-16T04:29:49.269Z,13.40
2019-04-16T04:32:19.469Z,13.40
2019-04-16T04:34:49.579Z,13.40
2019-04-16T04:37:19.634Z,13.30
2019-04-16T04:39:49.450Z,13.30
2019-04-16T04:42:19.735Z,13.30
2019-04-16T04:44:49.872Z,13.30
2019-04-16T04:47:20.202Z,13.30
2019-04-16T04:49:51.178Z,13.30
2019-04-16T04:52:20.986Z,13.30
2019-04-16T04:54:51.315Z,13.30
2019-04-16T04:57:22.310Z,13.20
2019-04-16T04:59:52.141Z,13.20
2019-04-16T05:02:21.957Z,13.20
2019-04-16T05:04:53.490Z,13.30
2019-04-16T05:07:25.657Z,13.20
2019-04-16T05:09:56.370Z,13.20
2019-04-16T05:12:26.183Z,13.30
2019-04-16T05:14:58.504Z,13.30
2019-04-16T05:17:31.293Z,13.30
2019-04-16T05:20:01.519Z,13.40
2019-04-16T05:22:32.962Z,13.80
2019-04-16T05:25:03.843Z,14.10
2019-04-16T05:27:33.701Z,14.10
2019-04-16T05:30:05.012Z,14.10
2019-04-16T05:32:34.817Z,14.00
2019-04-16T05:35:09.511Z,13.90
2019-04-16T05:37:38.006Z,13.90
2019-04-16T05:40:08.514Z,13.90
2019-04-16T05:42:38.406Z,14.00
2019-04-16T05:45:08.225Z,14.00
2019-04-16T05:47:38.029Z,14.00
2019-04-16T05:50:07.855Z,14.10
2019-04-16T05:52:37.674Z,14.10
2019-04-16T05:55:09.295Z,14.20
2019-04-16T05:57:40.745Z,14.30
2019-04-16T06:00:12.875Z,14.30
2019-04-16T06:02:43.862Z,14.40
2019-04-16T06:05:13.673Z,14.50
2019-04-16T06:07:43.567Z,14.70
2019-04-16T06:10:16.689Z,15.00
2019-04-16T06:12:46.466Z,15.40
2019-04-16T06:15:22.433Z,15.70
2019-04-16T06:18:12.461Z,16.10
2019-04-16T06:21:00.273Z,16.40
2019-04-16T06:23:40.861Z,16.60
2019-04-16T06:26:16.047Z,17.00
2019-04-16T06:29:02.159Z,17.20
2019-04-16T06:31:40.118Z,17.60
2019-04-16T06:34:14.702Z,18.10
2019-04-16T06:36:46.166Z,18.30
2019-04-16T06:39:17.648Z,18.60
2019-04-16T06:42:05.441Z,18.60
2019-04-16T06:44:36.973Z,19.00
2019-04-16T06:47:14.609Z,19.40
2019-04-16T06:49:52.152Z,19.80
2019-04-16T06:52:26.501Z,19.90
2019-04-16T06:55:03.691Z,20.20
2019-04-16T06:57:43.873Z,20.50
2019-04-16T07:00:35.042Z,20.60
2019-04-16T07:03:05.062Z,20.70
2019-04-16T07:05:42.659Z,20.90
2019-04-16T07:08:37.422Z,20.80
2019-04-16T07:11:06.757Z,20.90
2019-04-16T07:13:41.971Z,20.90
2019-04-16T07:16:08.345Z,21.30
2019-04-16T07:18:39.205Z,21.60
2019-04-16T07:21:09.354Z,21.80
2019-04-16T07:23:39.266Z,22.00
2019-04-16T07:26:13.566Z,22.20
2019-04-16T07:28:59.734Z,22.40
2019-04-16T07:31:43.612Z,22.60
2019-04-16T07:34:21.142Z,22.50
2019-04-16T07:37:02.049Z,22.30
2019-04-16T07:39:39.589Z,22.50
2019-04-16T07:42:14.117Z,22.90
2019-04-16T07:45:00.389Z,22.80
2019-04-16T07:47:40.684Z,23.00
2019-04-16T07:50:15.158Z,23.30
2019-04-16T07:53:03.058Z,23.50
2019-04-16T07:55:34.512Z,23.60
2019-04-16T07:58:04.415Z,24.00
2019-04-16T08:00:34.293Z,24.10
2019-04-16T08:03:04.368Z,24.00
2019-04-16T08:05:34.179Z,24.50
2019-04-16T08:08:04.414Z,24.50
2019-04-16T08:10:34.375Z,24.50
2019-04-16T08:13:09.179Z,24.50
2019-04-16T08:15:38.995Z,24.60
2019-04-16T08:18:08.826Z,24.80
2019-04-16T08:20:38.801Z,24.90
2019-04-16T08:23:26.303Z,25.10
2019-04-16T08:26:03.183Z,25.80
2019-04-16T08:28:29.267Z,26.10
2019-04-16T08:30:59.099Z,26.20
2019-04-16T08:33:29.385Z,25.50
2019-04-16T08:35:59.340Z,25.90
2019-04-16T08:38:34.122Z,26.30
2019-04-16T08:41:02.330Z,26.70
2019-04-16T08:43:32.170Z,26.40
2019-04-16T08:46:02.091Z,26.10
2019-04-16T08:48:31.987Z,25.90
2019-04-16T08:51:04.747Z,25.70
2019-04-16T08:53:35.556Z,26.00
2019-04-16T08:56:05.151Z,26.10
2019-04-16T08:58:35.681Z,25.80
2019-04-16T09:01:07.346Z,26.30
2019-04-16T09:03:37.251Z,26.90
2019-04-16T09:06:07.146Z,27.40
2019-04-16T09:08:44.316Z,26.90
2019-04-16T09:11:23.192Z,26.90
2019-04-16T09:13:48.393Z,26.10
2019-04-16T09:16:18.463Z,26.70
2019-04-16T09:18:59.034Z,27.40
2019-04-16T09:21:29.281Z,27.90
2019-04-16T09:24:17.044Z,27.90
2019-04-16T09:26:48.515Z,28.90
2019-04-16T09:29:31.992Z,29.80
2019-04-16T09:32:19.650Z,29.30
2019-04-16T09:35:09.254Z,28.60
2019-04-16T09:37:52.843Z,28.90
2019-04-16T09:40:33.576Z,29.10
2019-04-16T09:43:16.142Z,28.80
2019-04-16T09:45:37.337Z,29.30
2019-04-16T09:48:07.913Z,29.20
2019-04-16T09:50:42.990Z,29.90
2019-04-16T09:53:09.316Z,29.80
2019-04-16T09:55:39.153Z,30.00
2019-04-16T09:58:16.427Z,30.10
2019-04-16T10:01:00.214Z,30.10
2019-04-16T10:03:34.363Z,30.00
2019-04-16T10:06:05.724Z,29.90
2019-04-16T10:08:36.010Z,29.90
2019-04-16T10:11:06.501Z,29.90
2019-04-16T10:13:37.602Z,29.70
2019-04-16T10:16:07.443Z,29.60
2019-04-16T10:18:37.316Z,29.20
2019-04-16T10:21:07.147Z,29.40
2019-04-16T10:23:41.408Z,29.10
2019-04-16T10:26:11.616Z,29.30
2019-04-16T10:28:43.353Z,29.40
2019-04-16T10:31:14.824Z,29.30
2019-04-16T10:33:45.078Z,29.10
2019-04-16T10:36:15.999Z,28.70
2019-04-16T10:38:47.539Z,28.50
2019-04-16T10:41:21.862Z,28.30
2019-04-16T10:44:05.308Z,28.10
2019-04-16T10:46:36.784Z,27.90
2019-04-16T10:49:12.405Z,27.60
2019-04-16T10:51:52.954Z,27.30
2019-04-16T10:54:40.718Z,27.00
2019-04-16T10:57:28.400Z,26.70
2019-04-16T11:00:03.133Z,26.40
2019-04-16T11:02:48.503Z,26.10
2019-04-16T11:05:20.241Z,25.90
2019-04-16T11:07:52.179Z,25.80
2019-04-16T11:10:22.147Z,25.60
2019-04-16T11:12:52.136Z,25.50
2019-04-16T11:15:23.818Z,25.20
2019-04-16T11:17:54.021Z,25.10
2019-04-16T11:20:23.793Z,24.90
2019-04-16T11:22:53.691Z,24.80
2019-04-16T11:25:23.616Z,24.60
2019-04-16T11:27:53.522Z,24.50
2019-04-16T11:30:30.978Z,24.10
2019-04-16T11:33:00.859Z,24.00
2019-04-16T11:35:30.726Z,23.90
2019-04-16T11:38:02.129Z,23.90
2019-04-16T11:40:31.963Z,23.80
2019-04-16T11:43:01.749Z,23.80
2019-04-16T11:45:32.051Z,23.70
2019-04-16T11:48:01.844Z,23.70
2019-04-16T11:50:31.673Z,23.80
2019-04-16T11:53:01.484Z,23.80
2019-04-16T11:55:31.341Z,23.80
2019-04-16T11:58:01.216Z,23.70
2019-04-16T12:00:47.943Z,23.70
2019-04-16T12:03:22.850Z,23.80
2019-04-16T12:06:26.342Z,23.90
2019-04-16T12:08:53.127Z,23.80
2019-04-16T12:11:40.041Z,23.80
2019-04-16T12:14:28.867Z,23.90
2019-04-16T12:16:50.796Z,23.90
2019-04-16T12:19:38.681Z,23.90
2019-04-16T12:22:19.527Z,23.90
2019-04-16T12:25:03.154Z,24.00
2019-04-16T12:27:51.406Z,23.90
2019-04-16T12:30:22.916Z,23.60
2019-04-16T12:33:13.946Z,23.50
2019-04-16T12:35:46.646Z,23.60
2019-04-16T12:38:24.050Z,23.70
2019-04-16T12:40:55.540Z,23.60
2019-04-16T12:43:32.673Z,23.50
2019-04-16T12:46:12.927Z,23.40
2019-04-16T12:48:59.757Z,23.30
2019-04-16T12:51:31.194Z,23.20
2019-04-16T12:54:15.709Z,23.30
2019-04-16T12:57:04.572Z,23.20
2019-04-16T12:59:36.069Z,23.20
2019-04-16T13:02:13.918Z,23.30
2019-04-16T13:05:01.790Z,23.30
2019-04-16T13:07:38.863Z,23.40
2019-04-16T13:10:17.748Z,23.50
2019-04-16T13:13:04.432Z,23.40
2019-04-16T13:15:51.051Z,23.40
2019-04-16T13:18:25.805Z,23.40
2019-04-16T13:21:05.141Z,23.40
2019-04-16T13:23:38.544Z,23.40
2019-04-16T13:26:13.099Z,23.40
2019-04-16T13:28:41.434Z,23.50
2019-04-16T13:31:11.265Z,23.60
2019-04-16T13:33:43.576Z,23.60
2019-04-16T13:36:12.676Z,23.70
2019-04-16T13:39:00.287Z,23.70
2019-04-16T13:41:30.102Z,23.50
2019-04-16T13:44:01.567Z,23.40
2019-04-16T13:46:34.580Z,23.30
2019-04-16T13:49:07.185Z,23.20
2019-04-16T13:51:37.361Z,23.20
2019-04-16T13:54:09.160Z,23.20
2019-04-16T13:56:50.360Z,23.20
2019-04-16T13:59:30.065Z,23.20
2019-04-16T14:02:05.872Z,23.00
2019-04-16T14:04:37.157Z,23.00
2019-04-16T14:07:07.110Z,22.90
2019-04-16T14:09:36.950Z,22.80
2019-04-16T14:12:06.828Z,22.90
2019-04-16T14:14:36.647Z,22.80
2019-04-16T14:17:10.050Z,22.70
2019-04-16T14:19:38.777Z,22.70
2019-04-16T14:22:08.825Z,22.60
2019-04-16T14:24:38.939Z,22.70
2019-04-16T14:27:09.028Z,22.70
2019-04-16T14:29:39.473Z,22.60
2019-04-16T14:32:09.638Z,22.60
2019-04-16T14:34:41.106Z,22.50
2019-04-16T14:37:10.917Z,22.40
2019-04-16T14:39:42.479Z,22.40
2019-04-16T14:42:12.660Z,22.40
2019-04-16T14:44:50.142Z,22.40
2019-04-16T14:47:19.958Z,22.40
2019-04-16T14:49:50.832Z,22.40
2019-04-16T14:52:20.881Z,22.40
2019-04-16T14:55:01.757Z,22.40
2019-04-16T14:57:31.579Z,22.40
2019-04-16T15:00:03.050Z,22.30
2019-04-16T15:02:36.173Z,22.30
2019-04-16T15:05:08.535Z,22.40
2019-04-16T15:07:56.378Z,22.40
2019-04-16T15:10:44.157Z,22.30
2019-04-16T15:13:21.107Z,22.30
2019-04-16T15:16:05.825Z,22.10
2019-04-16T15:18:34.710Z,22.10
2019-04-16T15:21:24.431Z,22.10
2019-04-16T15:24:01.282Z,22.00
2019-04-16T15:26:46.679Z,22.00
2019-04-16T15:29:23.310Z,21.90
2019-04-16T15:31:57.037Z,21.80
2019-04-16T15:34:31.353Z,21.80
2019-04-16T15:37:03.092Z,21.80
2019-04-16T15:39:36.443Z,21.80
2019-04-16T15:42:17.532Z,21.80
2019-04-16T15:44:49.258Z,21.70
2019-04-16T15:47:20.755Z,21.70
2019-04-16T15:49:55.647Z,21.70
2019-04-16T15:52:25.666Z,21.70
2019-04-16T15:54:57.134Z,21.50
2019-04-16T15:57:28.649Z,21.50
2019-04-16T16:00:09.227Z,21.40
2019-04-16T16:02:58.068Z,21.30
2019-04-16T16:05:32.280Z,21.30
2019-04-16T16:08:16.030Z,21.10
2019-04-16T16:10:47.490Z,21.10
2019-04-16T16:13:17.315Z,21.00
2019-04-16T16:15:47.117Z,21.00
2019-04-16T16:18:16.941Z,21.00
2019-04-16T16:20:46.758Z,20.90
2019-04-16T16:23:16.627Z,21.00
2019-04-16T16:25:46.513Z,20.90
2019-04-16T16:28:16.345Z,20.90
2019-04-16T16:30:46.487Z,20.90
2019-04-16T16:33:16.450Z,20.90
2019-04-16T16:35:57.563Z,20.80
2019-04-16T16:38:20.853Z,20.80
2019-04-16T16:40:50.499Z,20.80
2019-04-16T16:43:20.434Z,20.80
2019-04-16T16:45:51.965Z,20.80
2019-04-16T16:48:23.579Z,20.70
2019-04-16T16:50:53.494Z,20.70
2019-04-16T16:53:24.958Z,20.70
2019-04-16T16:55:56.879Z,20.60
2019-04-16T16:58:44.534Z,20.60
2019-04-16T17:01:33.364Z,20.50
2019-04-16T17:04:02.127Z,20.50
2019-04-16T17:06:32.023Z,20.40
2019-04-16T17:09:01.853Z,20.30
2019-04-16T17:11:33.359Z,20.30
2019-04-16T17:14:04.316Z,20.20
2019-04-16T17:16:34.519Z,20.20
2019-04-16T17:19:04.330Z,20.10
2019-04-16T17:21:34.226Z,20.00
2019-04-16T17:24:04.120Z,19.90
2019-04-16T17:26:34.008Z,19.90
2019-04-16T17:29:03.896Z,19.80
2019-04-16T17:31:35.966Z,19.70
2019-04-16T17:34:05.231Z,19.60
2019-04-16T17:36:35.074Z,19.50
2019-04-16T17:39:09.538Z,19.30
2019-04-16T17:41:43.913Z,19.20
2019-04-16T17:44:15.362Z,19.00
2019-04-16T17:46:49.903Z,18.80
2019-04-16T17:49:21.350Z,18.60
2019-04-16T17:52:04.877Z,18.50
2019-04-16T17:54:36.325Z,18.50
2019-04-16T17:57:28.913Z,18.40
2019-04-16T18:00:06.314Z,18.30
2019-04-16T18:02:53.567Z,18.40
2019-04-16T18:05:34.029Z,18.30
2019-04-16T18:08:22.281Z,18.10
2019-04-16T18:10:56.467Z,18.00
2019-04-16T18:13:32.148Z,17.80
2019-04-16T18:16:12.206Z,17.70
2019-04-16T18:18:58.764Z,17.60
2019-04-16T18:21:30.321Z,17.50
2019-04-16T18:24:13.727Z,17.50
2019-04-16T18:26:51.231Z,17.50
2019-04-16T18:29:25.441Z,17.40
2019-04-16T18:31:57.637Z,17.10
2019-04-16T18:34:45.743Z,17.10
2019-04-16T18:37:30.173Z,17.20
2019-04-16T18:40:07.638Z,17.20
2019-04-16T18:42:48.032Z,17.20
2019-04-16T18:45:25.460Z,17.00
2019-04-16T18:48:04.843Z,17.00
2019-04-16T18:50:30.274Z,17.00
2019-04-16T18:53:00.095Z,16.80
2019-04-16T18:55:29.995Z,16.70
2019-04-16T18:58:00.803Z,16.60
2019-04-16T19:00:35.254Z,16.60
2019-04-16T19:03:05.152Z,16.60
2019-04-16T19:05:35.053Z,16.60
2019-04-16T19:08:05.805Z,16.50
2019-04-16T19:10:38.705Z,16.50
2019-04-16T19:13:11.153Z,16.30
2019-04-16T19:15:40.245Z,16.30
2019-04-16T19:18:19.252Z,16.20
2019-04-16T19:20:41.674Z,16.20
2019-04-16T19:23:11.559Z,16.20
2019-04-16T19:25:41.451Z,16.20
2019-04-16T19:28:11.337Z,16.20
2019-04-16T19:30:41.153Z,16.30
2019-04-16T19:33:11.059Z,16.30
2019-04-16T19:35:42.013Z,16.40
2019-04-16T19:38:12.149Z,16.60
2019-04-16T19:40:41.993Z,16.90
2019-04-16T19:43:12.913Z,17.10
2019-04-16T19:45:43.638Z,17.30
2019-04-16T19:48:17.944Z,17.50
2019-04-16T19:50:46.873Z,17.60
2019-04-16T19:53:16.691Z,17.70
2019-04-16T19:55:46.603Z,17.80
2019-04-16T19:58:16.544Z,17.80
2019-04-16T20:00:46.458Z,17.90
2019-04-16T20:03:16.358Z,18.00
2019-04-16T20:05:46.247Z,18.00
2019-04-16T20:08:16.162Z,18.00
2019-04-16T20:10:48.704Z,18.10
2019-04-16T20:13:18.589Z,18.10
2019-04-16T20:15:48.441Z,18.10
2019-04-16T20:18:19.899Z,18.10
2019-04-16T20:20:50.139Z,18.10
2019-04-16T20:23:20.780Z,18.00
2019-04-16T20:25:50.667Z,18.00
2019-04-16T20:28:20.484Z,18.00
2019-04-16T20:30:53.945Z,18.00
2019-04-16T20:33:21.737Z,18.00
2019-04-16T20:35:51.586Z,18.00
2019-04-16T20:38:21.405Z,18.00
2019-04-16T20:40:51.302Z,18.00
2019-04-16T20:43:21.505Z,17.90
2019-04-16T20:45:51.406Z,17.90
2019-04-16T20:48:21.294Z,17.80
2019-04-16T20:50:53.025Z,17.90
2019-04-16T20:53:22.694Z,17.90
2019-04-16T20:55:52.518Z,17.90
2019-04-16T20:58:22.331Z,17.90
2019-04-16T21:01:03.239Z,17.90
2019-04-16T21:03:33.106Z,17.90
2019-04-16T21:06:07.137Z,17.80
2019-04-16T21:08:34.437Z,17.80
2019-04-16T21:11:07.783Z,17.80
2019-04-16T21:13:35.764Z,17.80
2019-04-16T21:16:06.654Z,17.70
2019-04-16T21:18:36.536Z,17.70
2019-04-16T21:21:06.716Z,17.70
2019-04-16T21:23:36.519Z,17.70
2019-04-16T21:26:06.339Z,17.70
2019-04-16T21:28:58.246Z,17.60
2019-04-16T21:31:30.042Z,17.60
2019-04-16T21:34:01.582Z,17.50
2019-04-16T21:36:48.118Z,17.50
2019-04-16T21:39:19.582Z,17.50
2019-04-16T21:41:49.385Z,17.50
2019-04-16T21:44:19.265Z,17.50
2019-04-16T21:46:51.931Z,17.50
2019-04-16T21:49:20.594Z,17.50
2019-04-16T21:52:08.494Z,17.50
2019-04-16T21:54:39.954Z,17.50
2019-04-16T21:57:13.644Z,17.40
2019-04-16T21:59:41.262Z,17.40
2019-04-16T22:02:18.610Z,17.40
2019-04-16T22:04:48.424Z,17.40
2019-04-16T22:07:18.305Z,17.40
2019-04-16T22:09:49.194Z,17.40
2019-04-16T22:12:19.037Z,17.30
2019-04-16T22:14:51.093Z,17.30
2019-04-16T22:17:21.050Z,17.30
2019-04-16T22:19:54.411Z,17.30
2019-04-16T22:22:22.190Z,17.30
2019-04-16T22:24:55.030Z,17.20
2019-04-16T22:27:23.502Z,17.20
2019-04-16T22:29:55.435Z,17.20
2019-04-16T22:32:26.991Z,17.20
2019-04-16T22:34:57.385Z,17.10
2019-04-16T22:37:27.514Z,17.10
2019-04-16T22:40:13.972Z,17.10
2019-04-16T22:42:45.768Z,17.10
2019-04-16T22:45:23.227Z,17.00
2019-04-16T22:47:53.219Z,17.00
2019-04-16T22:50:23.038Z,17.00
2019-04-16T22:52:52.926Z,16.90
2019-04-16T22:55:25.136Z,16.90
2019-04-16T22:57:54.242Z,16.90
2019-04-16T23:00:31.249Z,16.90
2019-04-16T23:03:01.494Z,16.80
2019-04-16T23:05:32.013Z,16.80
2019-04-16T23:08:01.904Z,16.80
2019-04-16T23:10:31.721Z,16.80
2019-04-16T23:13:02.014Z,16.80
2019-04-16T23:15:32.673Z,16.80
2019-04-16T23:18:02.487Z,16.70
2019-04-16T23:20:36.112Z,16.70
2019-04-16T23:23:03.819Z,16.70
2019-04-16T23:25:33.981Z,16.70
2019-04-16T23:28:03.895Z,16.70
2019-04-16T23:30:36.369Z,16.60
2019-04-16T23:33:06.807Z,16.60
2019-04-16T23:35:43.351Z,16.60
2019-04-16T23:38:08.565Z,16.60
2019-04-16T23:40:40.764Z,16.60
2019-04-16T23:43:11.455Z,16.50
2019-04-16T23:45:42.968Z,16.50
2019-04-16T23:48:15.711Z,16.50
2019-04-16T23:50:46.586Z,16.50
2019-04-16T23:53:17.853Z,16.40
2019-04-16T23:55:50.017Z,16.40
2019-04-16T23:58:28.605Z,16.40
